Terminal Aerodrome Forecast
Issued by NWS Jacksonville, FL

Home | Current Version | Previous Version | Text Only | Print | Product List | Glossary On
Versions: 1 2 3 4 5 6 7 8 9 10 11 12 13 14 15 16 17
000
FTUS42 KJAX 260032 AAA
TAFSSI
TAF AMD
KSSI 260032Z 2601/2624 23010KT P6SM SCT035 BKN120 OVC250
     FM260200 22006KT P6SM VCTS BKN040CB OVC080
      TEMPO 2602/2604 27025G35KT 3SM TSRA OVC030CB
     FM260500 24005KT P6SM SCT080 BKN200
     FM261800 26012KT P6SM BKN050=

USA.gov is the U.S. government's official web portal to all federal, state and local government web resources and services.